Capitol Logistics 870


GOBD
Blaise Diagne International Airport
Dakar, SN
EBLG
Liège Airport
Liege, BE

Route Details

Aircraft Information
Primary: Boeing 767-300BDSF
Backup: Not Available
Route Data
Distance: 2516nm
Sched. Duration: 4h 45m
Avg. Duration: 5h 75m (+130m)
Times Flown: 6
Recm'd Route: Not Available
Planned Altitude: 35,000ft
Origin Wx: GOBD 051600Z 35018KT CAVOK 29/18 Q1011 NOSIG
Dest. Wx: EBLG 051620Z 29010KT 250V310 9999 FEW025 11/07 Q0996 TEMPO 26015G25KT 4000 SHRA
Notes:

Financial History
Total Freight: 610,224lbs
Average Load: 101,704lbs/flt
Fuel Used: 375,105lbs
Avg. Fuel Used: 62,518lbs/flt
Fuel Expense: $277,578
Avg. Fuel Expense: $46,263
Avg. Fuel Cost: $0.74/lbs
Total Gross Income: $5,817,031
Pilot Pay: $1,444
Total Expenses: $628,551
Total Revenue: $4,901,623
Average Revenue: $969,505.23